createdAt,value
2022-10-05T00:02:21.680Z,12.40
2022-10-05T00:04:49.258Z,1.00
2022-10-05T00:07:18.039Z,1.00
2022-10-05T00:09:46.577Z,1.00
2022-10-05T00:12:21.073Z,42.70
2022-10-05T00:14:49.916Z,3.80
2022-10-05T00:17:22.943Z,60.10
2022-10-05T00:19:54.169Z,48.60
2022-10-05T00:22:29.684Z,61.00
2022-10-05T00:24:58.366Z,72.80
2022-10-05T00:27:33.044Z,99.90
2022-10-05T00:30:02.467Z,43.80
2022-10-05T00:32:29.316Z,99.90
2022-10-05T00:34:57.288Z,24.90
2022-10-05T00:37:25.503Z,99.90
2022-10-05T00:39:52.311Z,99.90
2022-10-05T00:42:40.592Z,99.90
2022-10-05T00:45:13.991Z,99.90
2022-10-05T00:47:58.908Z,99.90
2022-10-05T00:50:36.511Z,99.90
2022-10-05T00:53:45.328Z,99.90
2022-10-05T00:56:34.534Z,99.90
2022-10-05T00:59:43.488Z,99.90
2022-10-05T01:02:10.674Z,99.90
2022-10-05T01:04:49.550Z,99.90
2022-10-05T01:07:36.217Z,99.90
2022-10-05T01:10:13.311Z,99.90
2022-10-05T01:12:54.656Z,99.90
2022-10-05T01:15:33.457Z,99.90
2022-10-05T01:18:16.943Z,99.90
2022-10-05T01:21:18.556Z,99.90
2022-10-05T01:24:04.056Z,99.90
2022-10-05T01:26:54.422Z,99.90
2022-10-05T01:29:28.283Z,99.90
2022-10-05T01:32:01.931Z,99.90
2022-10-05T01:34:49.989Z,99.90
2022-10-05T01:37:26.798Z,99.90
2022-10-05T01:40:06.208Z,99.90
2022-10-05T01:42:59.146Z,1.00
2022-10-05T01:45:41.137Z,1.00
2022-10-05T01:48:18.825Z,99.90
2022-10-05T01:50:54.723Z,1.00
2022-10-05T01:53:43.803Z,1.00
2022-10-05T01:56:28.256Z,99.90
2022-10-05T01:59:16.466Z,99.90
2022-10-05T02:01:46.236Z,99.90
2022-10-05T02:04:56.562Z,99.90
2022-10-05T02:07:15.277Z,99.90
2022-10-05T02:10:23.808Z,99.90
2022-10-05T02:12:55.550Z,99.90
2022-10-05T02:15:30.126Z,99.90
2022-10-05T02:18:02.349Z,99.90
2022-10-05T02:20:31.960Z,99.90
2022-10-05T02:23:03.982Z,99.90
2022-10-05T02:25:34.208Z,99.90
2022-10-05T02:28:15.027Z,99.90
2022-10-05T02:30:49.032Z,99.90
2022-10-05T02:33:22.119Z,99.90
2022-10-05T02:35:48.992Z,99.90
2022-10-05T02:38:26.034Z,99.90
2022-10-05T02:41:05.012Z,99.90
2022-10-05T02:43:43.698Z,99.90
2022-10-05T02:46:41.714Z,99.90
2022-10-05T02:49:14.621Z,99.90
2022-10-05T02:51:55.629Z,99.90
2022-10-05T02:54:40.151Z,99.90
2022-10-05T02:57:26.761Z,99.90
2022-10-05T03:00:01.006Z,99.90
2022-10-05T03:02:27.889Z,99.90
2022-10-05T03:05:18.556Z,99.90
2022-10-05T03:08:02.457Z,99.90
2022-10-05T03:10:32.272Z,99.90
2022-10-05T03:13:04.003Z,99.90
2022-10-05T03:15:39.146Z,99.90
2022-10-05T03:18:18.024Z,99.90
2022-10-05T03:20:56.288Z,99.90
2022-10-05T03:23:35.508Z,1.00
2022-10-05T03:26:17.250Z,1.00
2022-10-05T03:28:56.237Z,1.00
2022-10-05T03:31:28.042Z,1.00
2022-10-05T03:34:38.042Z,1.00
2022-10-05T03:37:09.862Z,1.00
2022-10-05T03:39:41.769Z,1.00
2022-10-05T03:42:31.659Z,1.00
2022-10-05T03:45:07.872Z,1.00
2022-10-05T03:48:01.309Z,1.00
2022-10-05T03:50:48.630Z,1.00
2022-10-05T03:53:19.272Z,1.00
2022-10-05T03:55:57.365Z,1.00
2022-10-05T03:58:27.899Z,1.00
2022-10-05T04:00:59.589Z,1.00
2022-10-05T04:03:33.692Z,1.00
2022-10-05T04:06:10.899Z,1.00
2022-10-05T04:08:52.097Z,1.00
2022-10-05T04:11:24.468Z,1.00
2022-10-05T04:14:07.554Z,1.00
2022-10-05T04:16:47.957Z,1.00
2022-10-05T04:19:22.191Z,1.00
2022-10-05T04:22:11.009Z,1.00
2022-10-05T04:24:45.893Z,1.00
2022-10-05T04:27:18.210Z,1.00
2022-10-05T04:29:51.348Z,1.00
2022-10-05T04:32:37.378Z,1.00
2022-10-05T04:35:34.085Z,1.00
2022-10-05T04:38:23.323Z,33.20
2022-10-05T04:40:52.779Z,99.90
2022-10-05T04:43:44.141Z,99.90
2022-10-05T04:46:17.970Z,99.90
2022-10-05T04:48:57.133Z,99.90
2022-10-05T04:52:02.320Z,99.90
2022-10-05T04:55:13.471Z,99.90
2022-10-05T04:57:57.741Z,99.90
2022-10-05T05:00:30.388Z,99.90
2022-10-05T05:03:30.472Z,99.90
2022-10-05T05:06:16.268Z,99.90
2022-10-05T05:09:02.578Z,99.90
2022-10-05T05:11:56.671Z,99.90
2022-10-05T05:14:44.605Z,99.90
2022-10-05T05:17:32.245Z,99.90
2022-10-05T05:20:21.806Z,99.90
2022-10-05T05:22:51.735Z,99.90
2022-10-05T05:25:43.659Z,99.90
2022-10-05T05:28:24.652Z,99.90
2022-10-05T05:31:00.477Z,99.90
2022-10-05T05:33:37.434Z,99.90
2022-10-05T05:36:13.229Z,99.90
2022-10-05T05:39:01.263Z,99.90
2022-10-05T05:41:38.205Z,99.90
2022-10-05T05:44:16.603Z,99.90
2022-10-05T05:47:05.166Z,97.40
2022-10-05T05:49:41.557Z,99.90
2022-10-05T05:52:24.625Z,99.90
2022-10-05T05:55:02.426Z,94.20
2022-10-05T05:57:43.646Z,99.90
2022-10-05T06:00:31.080Z,96.30
2022-10-05T06:02:58.011Z,99.90
2022-10-05T06:05:39.916Z,33.00
2022-10-05T06:08:17.792Z,6.50
2022-10-05T06:10:49.825Z,29.10
2022-10-05T06:13:29.082Z,13.80
2022-10-05T06:15:59.302Z,23.70
2022-10-05T06:18:26.171Z,1.00
2022-10-05T06:20:57.951Z,1.00
2022-10-05T06:23:34.670Z,1.00
2022-10-05T06:26:29.841Z,1.00
2022-10-05T06:29:01.237Z,1.00
2022-10-05T06:31:46.263Z,1.00
2022-10-05T06:34:34.291Z,1.00
2022-10-05T06:37:06.021Z,1.00
2022-10-05T06:39:48.033Z,1.00
2022-10-05T06:42:20.911Z,1.00
2022-10-05T06:45:12.276Z,1.00
2022-10-05T06:48:05.548Z,1.00
2022-10-05T06:50:37.048Z,1.00
2022-10-05T06:53:34.271Z,1.00
2022-10-05T06:56:10.319Z,1.00
2022-10-05T06:58:43.111Z,1.00
2022-10-05T07:01:22.938Z,1.00
2022-10-05T07:04:22.496Z,1.00
2022-10-05T07:06:58.097Z,1.00
2022-10-05T07:09:46.297Z,1.00
2022-10-05T07:12:44.062Z,1.00
2022-10-05T07:15:34.809Z,1.00
2022-10-05T07:18:17.041Z,61.20
2022-10-05T07:21:06.916Z,55.40
2022-10-05T07:23:42.828Z,99.90
2022-10-05T07:26:15.973Z,99.90
2022-10-05T07:29:07.842Z,99.90
2022-10-05T07:31:47.824Z,99.90
2022-10-05T07:34:26.533Z,99.90
2022-10-05T07:37:20.570Z,99.90
2022-10-05T07:40:15.229Z,99.90
2022-10-05T07:42:52.026Z,99.90
2022-10-05T07:45:47.048Z,99.90
2022-10-05T07:48:29.294Z,99.90
2022-10-05T07:51:22.487Z,99.90
2022-10-05T07:54:12.130Z,99.90
2022-10-05T07:57:06.465Z,99.90
2022-10-05T07:59:48.558Z,99.90
2022-10-05T08:02:34.628Z,99.90
2022-10-05T08:05:20.524Z,99.90
2022-10-05T08:07:50.532Z,99.90
2022-10-05T08:10:26.202Z,99.90
2022-10-05T08:13:12.056Z,99.90
2022-10-05T08:15:44.938Z,24.00
2022-10-05T08:18:18.077Z,99.90
2022-10-05T08:20:47.751Z,99.90
2022-10-05T08:23:23.796Z,99.90
2022-10-05T08:26:06.763Z,99.90
2022-10-05T08:28:40.561Z,99.90
2022-10-05T08:31:22.686Z,99.90
2022-10-05T08:34:02.032Z,99.90
2022-10-05T08:36:40.104Z,69.80
2022-10-05T08:39:13.179Z,99.90
2022-10-05T08:42:17.773Z,99.90
2022-10-05T08:44:55.177Z,99.90
2022-10-05T08:47:51.511Z,99.90
2022-10-05T08:50:31.511Z,99.90
2022-10-05T08:53:08.147Z,99.90
2022-10-05T08:55:42.195Z,99.90
2022-10-05T08:58:33.885Z,99.90
2022-10-05T09:01:03.784Z,99.90
2022-10-05T09:03:49.046Z,99.90
2022-10-05T09:06:43.800Z,99.90
2022-10-05T09:09:30.112Z,99.90
2022-10-05T09:12:15.152Z,99.90
2022-10-05T09:15:20.499Z,99.90
2022-10-05T09:18:03.423Z,99.90
2022-10-05T09:20:43.031Z,46.20
2022-10-05T09:23:14.831Z,99.90
2022-10-05T09:26:01.320Z,52.50
2022-10-05T09:28:46.880Z,99.90
2022-10-05T09:31:35.456Z,78.50
2022-10-05T09:34:09.232Z,76.10
2022-10-05T09:36:48.138Z,1.00
2022-10-05T09:39:26.982Z,10.40
2022-10-05T09:41:56.833Z,1.00
2022-10-05T09:44:56.456Z,84.90
2022-10-05T09:47:36.665Z,1.00
2022-10-05T09:50:31.343Z,1.00
2022-10-05T09:53:05.104Z,1.00
2022-10-05T09:55:46.273Z,1.00
2022-10-05T09:58:44.505Z,1.00
2022-10-05T10:01:38.462Z,1.00
2022-10-05T10:04:39.052Z,1.00
2022-10-05T10:07:30.311Z,1.00
2022-10-05T10:10:03.115Z,99.90
2022-10-05T10:12:37.193Z,99.90
2022-10-05T10:15:06.926Z,99.90
2022-10-05T10:17:58.820Z,99.90
2022-10-05T10:20:47.276Z,11.00
2022-10-05T10:23:23.361Z,1.00
2022-10-05T10:25:54.475Z,1.00
2022-10-05T10:28:34.650Z,1.00
2022-10-05T10:31:04.454Z,99.90
2022-10-05T10:33:43.251Z,99.90
2022-10-05T10:36:38.307Z,99.90
2022-10-05T10:39:27.840Z,1.00
2022-10-05T10:42:12.959Z,99.90
2022-10-05T10:44:59.096Z,99.90
2022-10-05T10:47:39.418Z,99.90
2022-10-05T10:50:30.672Z,99.90
2022-10-05T10:53:35.192Z,99.90
2022-10-05T10:56:30.136Z,1.00
2022-10-05T10:59:07.367Z,1.00
2022-10-05T11:02:00.374Z,38.50
2022-10-05T11:04:47.689Z,1.00
2022-10-05T11:07:40.812Z,1.00
2022-10-05T11:10:42.763Z,1.00
2022-10-05T11:13:15.405Z,1.00
2022-10-05T11:15:55.415Z,1.00
2022-10-05T11:18:51.513Z,1.00
2022-10-05T11:21:30.323Z,1.00
2022-10-05T11:24:25.038Z,99.90
2022-10-05T11:27:05.206Z,99.90
2022-10-05T11:29:56.203Z,99.90
2022-10-05T11:32:31.964Z,99.90
2022-10-05T11:35:17.494Z,1.00
2022-10-05T11:37:48.608Z,1.00
2022-10-05T11:40:43.110Z,99.90
2022-10-05T11:43:22.114Z,99.90
2022-10-05T11:46:05.547Z,99.90
2022-10-05T11:48:45.422Z,99.90
2022-10-05T11:51:12.199Z,99.90
2022-10-05T11:53:45.008Z,1.00
2022-10-05T11:56:26.538Z,99.90
2022-10-05T11:59:02.042Z,99.90
2022-10-05T12:01:56.235Z,11.40
2022-10-05T12:04:38.222Z,1.00
2022-10-05T12:07:08.115Z,99.90
2022-10-05T12:09:36.644Z,99.90
2022-10-05T12:12:15.021Z,99.90
2022-10-05T12:14:59.026Z,99.90
2022-10-05T12:17:39.887Z,1.00
2022-10-05T12:20:17.484Z,24.00
2022-10-05T12:22:52.647Z,1.00
2022-10-05T12:25:26.291Z,1.00
2022-10-05T12:27:57.336Z,1.00
2022-10-05T12:30:49.221Z,1.00
2022-10-05T12:33:21.748Z,1.00
2022-10-05T12:35:53.167Z,1.00
2022-10-05T12:38:28.397Z,1.00
2022-10-05T12:41:07.648Z,1.00
2022-10-05T12:43:54.707Z,1.00
2022-10-05T12:46:34.090Z,1.00
2022-10-05T12:49:22.282Z,1.00
2022-10-05T12:51:52.046Z,1.00
2022-10-05T12:54:34.368Z,1.00
2022-10-05T12:57:17.088Z,1.00
2022-10-05T12:59:50.869Z,86.90
2022-10-05T13:02:32.950Z,40.40
2022-10-05T13:05:09.707Z,1.00
2022-10-05T13:07:40.377Z,1.00
2022-10-05T13:10:10.178Z,1.00
2022-10-05T13:13:04.644Z,99.90
2022-10-05T13:16:00.199Z,70.10
2022-10-05T13:19:05.030Z,1.00
2022-10-05T13:21:50.101Z,26.90
2022-10-05T13:24:24.730Z,1.00
2022-10-05T13:26:55.512Z,1.00
2022-10-05T13:29:24.325Z,1.00
2022-10-05T13:31:58.619Z,1.00
2022-10-05T13:34:40.229Z,1.00
2022-10-05T13:37:16.122Z,1.00
2022-10-05T13:39:57.243Z,1.00
2022-10-05T13:42:39.582Z,1.00
2022-10-05T13:45:23.367Z,1.00
2022-10-05T13:48:12.355Z,1.00
2022-10-05T13:50:45.750Z,99.90
2022-10-05T13:53:48.959Z,99.90
2022-10-05T13:56:30.205Z,1.00
2022-10-05T13:59:11.553Z,1.00
2022-10-05T14:01:52.759Z,1.00
2022-10-05T14:04:24.601Z,1.00
2022-10-05T14:06:54.711Z,1.00
2022-10-05T14:09:27.878Z,99.90
2022-10-05T14:12:03.640Z,99.90
2022-10-05T14:14:33.286Z,99.90
2022-10-05T14:20:03.027Z,99.90
2022-10-05T14:22:29.866Z,99.90
2022-10-05T14:25:03.624Z,96.00
2022-10-05T14:27:35.073Z,1.00
2022-10-05T14:30:18.816Z,1.00
2022-10-05T14:32:56.288Z,89.20
2022-10-05T14:35:30.488Z,99.90
2022-10-05T14:37:57.892Z,99.90
2022-10-05T14:40:36.363Z,99.90
2022-10-05T14:43:15.533Z,99.90
2022-10-05T14:46:02.725Z,99.70
2022-10-05T14:48:42.005Z,99.90
2022-10-05T14:51:32.101Z,99.90
2022-10-05T14:54:14.982Z,41.10
2022-10-05T14:56:46.599Z,99.90
2022-10-05T14:59:41.515Z,99.90
2022-10-05T15:02:23.641Z,99.90
2022-10-05T15:05:15.778Z,99.90
2022-10-05T15:07:44.743Z,70.80
2022-10-05T15:10:37.433Z,48.40
2022-10-05T15:13:12.512Z,99.90
2022-10-05T15:15:57.987Z,18.10
2022-10-05T15:18:43.317Z,58.00
2022-10-05T15:21:24.913Z,99.90
2022-10-05T15:24:00.114Z,99.90
2022-10-05T15:26:36.374Z,15.50
2022-10-05T15:29:18.744Z,99.90
2022-10-05T15:32:07.892Z,99.90
2022-10-05T15:35:13.867Z,99.90
2022-10-05T15:37:55.740Z,99.90
2022-10-05T15:40:35.422Z,99.90
2022-10-05T15:43:06.413Z,99.90
2022-10-05T15:45:37.518Z,99.90
2022-10-05T15:48:08.682Z,99.90
2022-10-05T15:50:42.223Z,99.90
2022-10-05T15:53:42.014Z,99.90
2022-10-05T15:56:27.481Z,99.90
2022-10-05T15:58:55.810Z,1.00
2022-10-05T16:01:31.728Z,1.00
2022-10-05T16:04:12.631Z,1.00
2022-10-05T16:07:11.148Z,1.00
2022-10-05T16:09:41.121Z,1.00
2022-10-05T16:12:13.832Z,1.00
2022-10-05T16:15:17.807Z,1.00
2022-10-05T16:17:51.323Z,1.00
2022-10-05T16:20:32.326Z,1.00
2022-10-05T16:23:22.069Z,1.00
2022-10-05T16:26:01.500Z,1.00
2022-10-05T16:28:33.272Z,1.00
2022-10-05T16:31:08.471Z,1.00
2022-10-05T16:34:23.311Z,1.00
2022-10-05T16:37:10.493Z,1.00
2022-10-05T16:39:59.882Z,1.00
2022-10-05T16:42:29.830Z,1.00
2022-10-05T16:45:08.354Z,1.00
2022-10-05T16:47:53.909Z,1.00
2022-10-05T16:50:50.385Z,1.00
2022-10-05T16:53:18.495Z,1.00
2022-10-05T16:55:53.471Z,1.00
2022-10-05T16:59:05.885Z,1.00
2022-10-05T17:02:23.288Z,1.00
2022-10-05T17:05:22.603Z,1.00
2022-10-05T17:08:29.625Z,99.90
2022-10-05T17:11:33.753Z,99.90
2022-10-05T17:14:08.656Z,99.90
2022-10-05T17:16:52.608Z,99.90
2022-10-05T17:19:43.649Z,99.90
2022-10-05T17:22:37.778Z,99.90
2022-10-05T17:25:18.734Z,99.90
2022-10-05T17:27:55.055Z,99.90
2022-10-05T17:30:58.803Z,99.90
2022-10-05T17:33:33.042Z,1.00
2022-10-05T17:36:01.857Z,1.00
2022-10-05T17:38:32.109Z,1.00
2022-10-05T17:41:17.427Z,1.00
2022-10-05T17:44:21.749Z,1.00
2022-10-05T17:46:59.713Z,1.00
2022-10-05T17:50:15.304Z,1.00
2022-10-05T17:53:02.624Z,1.00
2022-10-05T17:56:03.852Z,1.00
2022-10-05T17:58:30.700Z,1.00
2022-10-05T18:00:57.674Z,1.00
2022-10-05T18:03:43.866Z,1.00
2022-10-05T18:06:26.036Z,1.00
2022-10-05T18:09:22.168Z,4.70
2022-10-05T18:12:24.337Z,99.20
2022-10-05T18:15:03.637Z,99.90
2022-10-05T18:17:36.600Z,99.90
2022-10-05T18:20:31.734Z,99.90
2022-10-05T18:23:09.303Z,99.90
2022-10-05T18:25:45.426Z,99.90
2022-10-05T18:28:24.531Z,99.90
2022-10-05T18:31:09.170Z,99.90
2022-10-05T18:33:49.318Z,1.00
2022-10-05T18:36:19.244Z,99.90
2022-10-05T18:39:21.740Z,1.00
2022-10-05T18:42:41.773Z,48.00
2022-10-05T18:45:24.602Z,93.30
2022-10-05T18:48:16.231Z,99.90
2022-10-05T18:50:55.077Z,99.90
2022-10-05T18:53:46.230Z,99.90
2022-10-05T18:56:21.999Z,99.90
2022-10-05T18:59:24.418Z,99.90
2022-10-05T19:02:15.252Z,99.90
2022-10-05T19:04:52.139Z,99.90
2022-10-05T19:07:38.731Z,87.40
2022-10-05T19:10:44.040Z,99.90
2022-10-05T19:13:18.459Z,99.90
2022-10-05T19:16:04.177Z,1.00
2022-10-05T19:18:40.151Z,1.00
2022-10-05T19:21:27.950Z,10.70
2022-10-05T19:24:09.936Z,15.50
2022-10-05T19:27:27.265Z,51.70
2022-10-05T19:30:18.208Z,50.50
2022-10-05T19:33:08.351Z,99.90
2022-10-05T19:35:58.368Z,99.90
2022-10-05T19:38:44.860Z,99.90
2022-10-05T19:41:18.181Z,99.90
2022-10-05T19:44:10.005Z,99.90
2022-10-05T19:46:55.677Z,99.90
2022-10-05T19:49:45.148Z,99.90
2022-10-05T19:52:15.483Z,99.90
2022-10-05T19:54:42.643Z,99.90
2022-10-05T19:57:17.944Z,99.90
2022-10-05T19:59:46.649Z,1.00
2022-10-05T20:02:17.376Z,1.00
2022-10-05T20:04:47.501Z,1.00
2022-10-05T20:07:17.303Z,1.00
2022-10-05T20:09:53.262Z,1.00
2022-10-05T20:12:23.006Z,1.00
2022-10-05T20:15:24.513Z,1.00
2022-10-05T20:18:10.066Z,1.00
2022-10-05T20:20:43.307Z,1.00
2022-10-05T20:23:21.643Z,1.00
2022-10-05T20:26:08.860Z,1.00
2022-10-05T20:28:36.096Z,1.00
2022-10-05T20:31:03.026Z,1.00
2022-10-05T20:33:29.915Z,1.00
2022-10-05T20:35:56.612Z,1.00
2022-10-05T20:38:23.373Z,99.90
2022-10-05T20:40:50.190Z,99.90
2022-10-05T20:43:16.965Z,1.00
2022-10-05T20:45:43.847Z,1.00
2022-10-05T20:48:11.815Z,1.00
2022-10-05T20:50:38.881Z,1.00
2022-10-05T20:53:11.076Z,1.00
2022-10-05T20:55:38.760Z,1.00
2022-10-05T20:58:05.733Z,1.00
2022-10-05T21:00:52.710Z,1.00
2022-10-05T21:03:19.730Z,1.00
2022-10-05T21:05:47.014Z,4.10
2022-10-05T21:08:14.054Z,1.00
2022-10-05T21:10:40.830Z,1.00
2022-10-05T21:13:07.652Z,15.10
2022-10-05T21:15:34.489Z,99.90
2022-10-05T21:18:01.230Z,99.90
2022-10-05T21:20:27.971Z,65.70
2022-10-05T21:22:54.735Z,1.00
2022-10-05T21:25:21.461Z,1.00
2022-10-05T21:27:49.866Z,3.90
2022-10-05T21:30:16.656Z,1.00
2022-10-05T21:32:44.785Z,1.00
2022-10-05T21:35:13.100Z,1.00
2022-10-05T21:37:39.919Z,99.90
2022-10-05T21:40:07.146Z,99.90
2022-10-05T21:42:33.958Z,1.00
2022-10-05T21:45:00.737Z,1.00
2022-10-05T21:47:27.827Z,1.00
2022-10-05T21:49:54.832Z,1.00
2022-10-05T21:52:22.043Z,1.00
2022-10-05T21:54:49.066Z,1.00
2022-10-05T21:57:15.973Z,1.00
2022-10-05T21:59:43.195Z,1.00
2022-10-05T22:02:09.979Z,1.00
2022-10-05T22:04:36.774Z,1.00
2022-10-05T22:07:13.078Z,1.00
2022-10-05T22:09:39.808Z,2.90
2022-10-05T22:12:06.572Z,1.00
2022-10-05T22:14:33.354Z,1.00
2022-10-05T22:17:00.669Z,1.00
2022-10-05T22:19:27.503Z,99.90
2022-10-05T22:21:54.221Z,99.90
2022-10-05T22:24:20.948Z,99.90
2022-10-05T22:26:49.597Z,99.90
2022-10-05T22:29:17.385Z,99.90
2022-10-05T22:31:46.267Z,99.90
2022-10-05T22:34:13.860Z,99.90
2022-10-05T22:36:41.869Z,82.80
2022-10-05T22:39:08.603Z,96.50
2022-10-05T22:41:35.494Z,40.10
2022-10-05T22:44:02.879Z,10.00
2022-10-05T22:46:30.083Z,25.70
2022-10-05T22:48:56.861Z,1.00
2022-10-05T22:51:23.653Z,1.00
2022-10-05T22:53:50.503Z,1.00
2022-10-05T22:56:17.377Z,1.00
2022-10-05T22:58:44.600Z,1.00
2022-10-05T23:01:17.035Z,1.00
2022-10-05T23:03:44.771Z,1.00
2022-10-05T23:06:14.265Z,1.00
2022-10-05T23:08:41.872Z,99.90
2022-10-05T23:11:11.674Z,1.00
2022-10-05T23:13:38.731Z,99.90
2022-10-05T23:16:16.663Z,99.90
2022-10-05T23:18:44.206Z,99.90
2022-10-05T23:21:11.742Z,23.70
2022-10-05T23:23:40.250Z,99.90
2022-10-05T23:26:08.380Z,99.90
2022-10-05T23:28:35.204Z,99.90
2022-10-05T23:31:04.947Z,99.90
2022-10-05T23:33:32.171Z,1.00
2022-10-05T23:36:04.903Z,1.00
2022-10-05T23:38:32.331Z,1.00
2022-10-05T23:40:59.877Z,1.00
2022-10-05T23:43:27.384Z,1.00
2022-10-05T23:45:54.397Z,1.00
2022-10-05T23:48:21.604Z,8.20
2022-10-05T23:50:49.404Z,1.30
2022-10-05T23:53:16.633Z,1.00
2022-10-05T23:55:43.383Z,1.00
2022-10-05T23:58:10.850Z,36.60
